createdAt,value
2023-11-29T12:26:16.486Z,4.50
2023-11-29T12:28:43.708Z,4.00
2023-11-29T12:31:13.465Z,4.20
2023-11-29T12:33:40.494Z,6.00
2023-11-29T12:36:10.287Z,4.90
2023-11-29T12:38:37.115Z,5.40
2023-11-29T12:41:03.990Z,5.00
2023-11-29T12:43:30.800Z,6.50
2023-11-29T12:45:59.493Z,5.00
2023-11-29T12:48:26.908Z,6.40
2023-11-29T12:50:55.472Z,8.20
2023-11-29T12:53:22.292Z,7.50
2023-11-29T12:55:49.088Z,6.50
2023-11-29T12:58:15.913Z,14.80
2023-11-29T13:00:45.835Z,20.20
2023-11-29T13:03:12.815Z,10.10
2023-11-29T13:05:39.799Z,7.90
2023-11-29T13:08:07.379Z,7.00
2023-11-29T13:10:34.297Z,6.40
2023-11-29T13:13:01.913Z,11.30
2023-11-29T13:15:28.953Z,9.10
2023-11-29T13:17:55.927Z,8.20
2023-11-29T13:20:22.867Z,13.90
2023-11-29T13:22:50.009Z,8.40
2023-11-29T13:25:16.934Z,40.90
2023-11-29T13:27:44.015Z,90.90
2023-11-29T13:30:11.740Z,34.60
2023-11-29T13:32:38.779Z,23.60
2023-11-29T13:35:08.014Z,13.60
2023-11-29T13:37:35.990Z,9.20
2023-11-29T13:40:03.106Z,9.80
2023-11-29T13:42:30.021Z,15.00
2023-11-29T13:44:58.383Z,11.30
2023-11-29T13:47:26.682Z,7.80
2023-11-29T13:49:53.782Z,9.30
2023-11-29T13:52:23.748Z,9.10
2023-11-29T13:54:52.024Z,13.00
2023-11-29T13:57:18.849Z,9.80
2023-11-29T14:30:06.323Z,41.50
2023-11-29T14:32:33.456Z,43.70
2023-11-29T14:35:00.485Z,60.20
2023-11-29T14:37:27.507Z,43.50
2023-11-29T14:39:54.623Z,31.80
2023-11-29T14:42:22.239Z,30.00
2023-11-29T14:59:24.728Z,41.10
2023-11-29T15:01:51.648Z,63.80
2023-11-29T15:04:18.635Z,90.70
2023-11-29T15:06:45.592Z,79.90
2023-11-29T15:09:12.491Z,77.30
2023-11-29T15:11:39.339Z,111.00
2023-11-29T15:14:06.235Z,73.10
2023-11-29T15:16:33.064Z,55.10
2023-11-29T15:19:01.162Z,45.80
2023-11-29T15:21:28.180Z,26.30
2023-11-29T15:23:57.920Z,17.00
2023-11-29T15:26:25.030Z,11.90
2023-11-29T15:28:51.824Z,15.70
2023-11-29T15:31:18.706Z,12.20
2023-11-29T15:33:45.934Z,14.10
2023-11-29T15:36:13.148Z,26.00
2023-11-29T15:38:40.225Z,31.50
2023-11-29T15:41:07.008Z,34.00
2023-11-29T15:43:33.829Z,19.30
2023-11-29T15:46:00.827Z,26.80
2023-11-29T15:48:28.006Z,15.30
2023-11-29T15:50:54.905Z,15.80
2023-11-29T15:53:21.786Z,10.00
2023-11-29T15:55:49.808Z,13.90
2023-11-29T15:58:16.647Z,14.60
2023-11-29T16:00:43.440Z,14.20
2023-11-29T16:03:12.633Z,16.10
2023-11-29T16:05:39.709Z,17.70
2023-11-29T16:08:06.606Z,20.10
2023-11-29T16:10:33.917Z,17.00
2023-11-29T16:13:00.635Z,15.00
2023-11-29T16:15:27.645Z,22.50
2023-11-29T16:17:54.549Z,39.30
2023-11-29T16:20:21.672Z,20.70
2023-11-29T16:22:48.488Z,16.40
2023-11-29T16:25:15.410Z,13.40
2023-11-29T16:27:42.242Z,11.60
2023-11-29T16:30:09.972Z,13.70
2023-11-29T16:32:36.963Z,10.20
2023-11-29T16:35:04.493Z,16.00
2023-11-29T16:37:32.294Z,11.40
2023-11-29T16:39:59.318Z,15.60
2023-11-29T16:42:26.344Z,18.10
2023-11-29T16:44:53.474Z,16.10
2023-11-29T16:47:20.444Z,17.70
2023-11-29T16:49:47.283Z,27.80
2023-11-29T16:52:14.193Z,36.40
2023-11-29T16:54:41.111Z,37.50
2023-11-29T16:57:08.540Z,33.20
2023-11-29T16:59:36.752Z,28.10
2023-11-29T17:02:03.743Z,22.40
2023-11-29T17:04:30.972Z,28.60
2023-11-29T17:06:57.793Z,32.50
2023-11-29T17:09:24.802Z,44.80
2023-11-29T17:11:51.645Z,17.10
2023-11-29T17:14:19.091Z,13.60
2023-11-29T17:16:46.189Z,15.00
2023-11-29T17:19:13.172Z,16.70
2023-11-29T17:21:39.990Z,17.30
2023-11-29T17:24:07.862Z,23.00
2023-11-29T17:26:36.680Z,39.00
2023-11-29T17:31:31.160Z,15.70
2023-11-29T17:33:57.983Z,23.30
2023-11-29T17:36:24.793Z,27.20
2023-11-29T17:38:51.642Z,18.30
2023-11-29T17:41:18.520Z,30.10
2023-11-29T17:43:45.341Z,18.40
2023-11-29T17:46:13.053Z,21.80
2023-11-29T17:48:39.936Z,20.70
2023-11-29T17:51:07.840Z,20.80
2023-11-29T17:53:34.784Z,20.50
2023-11-29T17:56:01.724Z,34.10
2023-11-29T17:58:28.638Z,47.50
2023-11-29T18:00:55.453Z,76.60
2023-11-29T18:03:22.414Z,82.00
2023-11-29T18:05:49.504Z,37.90
2023-11-29T18:08:16.325Z,48.40
2023-11-29T18:10:56.565Z,40.10
2023-11-29T18:13:25.816Z,35.20
2023-11-29T18:15:53.511Z,26.30
2023-11-29T18:18:20.582Z,34.70
2023-11-29T18:20:48.772Z,43.50
2023-11-29T18:23:15.660Z,28.90
2023-11-29T18:25:52.392Z,25.20
2023-11-29T18:28:26.047Z,25.20
2023-11-29T18:30:52.891Z,26.10
2023-11-29T18:33:19.710Z,25.70
2023-11-29T18:35:46.615Z,20.10
2023-11-29T18:38:13.516Z,28.30
2023-11-29T18:40:42.410Z,16.80
2023-11-29T18:43:09.617Z,16.90
2023-11-29T18:45:36.572Z,14.10
2023-11-29T18:48:03.965Z,14.20
2023-11-29T18:50:30.997Z,24.90
2023-11-29T18:52:57.810Z,24.00
2023-11-29T18:55:24.734Z,24.40
2023-11-29T18:57:51.558Z,38.40
2023-11-29T19:00:18.977Z,71.30
2023-11-29T19:02:46.413Z,62.20
2023-11-29T19:05:14.392Z,27.90
2023-11-29T19:07:42.322Z,27.90
2023-11-29T19:10:10.043Z,32.90
2023-11-29T19:12:38.404Z,19.30
2023-11-29T19:15:06.295Z,21.50
2023-11-29T19:17:33.263Z,21.50
2023-11-29T19:20:00.505Z,22.40
2023-11-29T19:22:27.422Z,29.30
2023-11-29T19:24:54.242Z,28.20
2023-11-29T19:27:21.121Z,22.10
2023-11-29T19:29:48.006Z,29.10
2023-11-29T19:32:14.986Z,26.00
2023-11-29T19:34:41.805Z,83.60
2023-11-29T19:37:10.933Z,75.10
2023-11-29T19:39:39.946Z,35.80
2023-11-29T19:42:06.786Z,38.90
2023-11-29T19:44:33.779Z,34.90
2023-11-29T19:47:07.547Z,28.50
2023-11-29T19:49:40.097Z,20.50
2023-11-29T19:52:08.776Z,24.30
2023-11-29T19:54:36.291Z,15.60
2023-11-29T19:57:03.689Z,15.30
2023-11-29T19:59:30.539Z,10.80
2023-11-29T20:01:57.432Z,15.00
2023-11-29T20:04:24.357Z,12.00
2023-11-29T20:06:51.298Z,8.60
2023-11-29T20:09:21.452Z,9.80
2023-11-29T20:11:49.213Z,10.40
2023-11-29T20:14:19.927Z,11.30
2023-11-29T20:16:53.237Z,10.70
2023-11-29T20:19:20.308Z,9.20
2023-11-29T20:21:47.170Z,11.50
2023-11-29T20:24:14.576Z,13.40
2023-11-29T20:26:41.829Z,11.60
2023-11-29T20:29:08.666Z,10.40
2023-11-29T20:31:36.246Z,10.00
2023-11-29T20:34:04.590Z,11.80
2023-11-29T20:36:32.483Z,8.70
2023-11-29T20:38:59.678Z,8.30
2023-11-29T20:41:29.672Z,9.70
2023-11-29T20:43:56.498Z,11.50
2023-11-29T20:46:23.368Z,9.70
2023-11-29T20:48:50.660Z,9.60
2023-11-29T20:51:18.766Z,10.80
2023-11-29T20:53:48.330Z,11.00
2023-11-29T20:56:15.475Z,10.00
2023-11-29T20:58:42.293Z,7.90
2023-11-29T21:01:09.509Z,8.90
2023-11-29T21:03:36.631Z,8.50
2023-11-29T21:06:04.377Z,10.00
2023-11-29T21:08:31.359Z,8.30
2023-11-29T21:10:58.474Z,9.30
2023-11-29T21:13:25.294Z,10.30
2023-11-29T21:15:52.287Z,9.20
2023-11-29T21:18:19.406Z,10.40
2023-11-29T21:20:48.054Z,11.90
2023-11-29T21:23:14.900Z,10.60
2023-11-29T21:25:42.186Z,11.10
2023-11-29T21:28:09.009Z,11.40
2023-11-29T21:30:35.925Z,10.90
2023-11-29T21:33:02.889Z,13.50
2023-11-29T21:35:29.738Z,10.30
2023-11-29T21:37:56.757Z,11.90
2023-11-29T21:40:24.296Z,11.00
2023-11-29T21:42:51.084Z,12.30
2023-11-29T21:45:17.921Z,11.10
2023-11-29T21:47:44.959Z,11.00
2023-11-29T21:50:12.037Z,9.60
2023-11-29T21:52:38.964Z,10.00
2023-11-29T21:55:06.468Z,8.80
2023-11-29T21:57:33.287Z,9.60
2023-11-29T22:00:00.190Z,9.70
2023-11-29T22:02:27.259Z,9.70
2023-11-29T22:04:54.235Z,6.80
2023-11-29T22:07:21.251Z,8.40
2023-11-29T22:09:48.071Z,10.00
2023-11-29T22:12:14.894Z,9.90
2023-11-29T22:14:42.209Z,9.90
2023-11-29T22:17:09.621Z,11.70
2023-11-29T22:19:36.530Z,11.60
2023-11-29T22:22:03.452Z,8.10
2023-11-29T22:24:30.269Z,12.50
2023-11-29T22:26:58.336Z,9.40
2023-11-29T22:29:27.180Z,11.60
2023-11-29T22:31:54.748Z,13.30
2023-11-29T22:34:22.075Z,12.10
2023-11-29T22:36:50.259Z,11.20
2023-11-29T22:39:17.178Z,11.30
2023-11-29T22:41:44.254Z,11.10
2023-11-29T22:44:11.875Z,12.80
2023-11-29T22:46:39.965Z,11.50
2023-11-29T22:49:07.560Z,14.90
2023-11-29T22:51:34.466Z,15.10
2023-11-29T22:54:05.317Z,14.20
2023-11-29T22:56:38.529Z,14.80
2023-11-29T22:59:06.105Z,16.40
2023-11-29T23:01:34.323Z,13.30
2023-11-29T23:04:03.112Z,10.40
2023-11-29T23:06:30.615Z,11.40
2023-11-29T23:08:57.491Z,11.40
2023-11-29T23:11:24.335Z,11.10
2023-11-29T23:13:52.574Z,11.00
2023-11-29T23:16:20.057Z,14.40
2023-11-29T23:18:47.951Z,13.10
2023-11-29T23:21:15.293Z,11.90
2023-11-29T23:23:43.829Z,13.60
2023-11-29T23:26:10.953Z,13.90
2023-11-29T23:28:37.879Z,10.30
2023-11-29T23:31:05.114Z,14.30
2023-11-29T23:33:32.163Z,11.70
2023-11-29T23:35:59.049Z,12.90
2023-11-29T23:38:25.829Z,10.80
2023-11-29T23:40:52.949Z,14.00
2023-11-29T23:43:19.979Z,12.40
2023-11-29T23:45:46.778Z,12.80
2023-11-29T23:48:13.678Z,12.40
2023-11-29T23:50:40.609Z,12.80
2023-11-29T23:53:07.424Z,13.50
2023-11-29T23:55:34.247Z,11.90
2023-11-29T23:58:01.060Z,12.50
